Airfield :
LOGIN :

Register | Disclaimer

   EN    FR    IT 

 










Legend :    VFR   Marginal VFR   IFR   Intensive IFR   Very Intensive IFR
Visi :
Ceiling :
>= 8 km
>= 3000ft
5 to 8 km
1000 to 3000 ft
1500m to 5 km
500 to 1000 ft
800 to 1500m
200 to 500 ft
< 800m
< 200 ft
Symbols :   Thunderstorms  Fog  Heavy snow  Heavy precipitations  Wind > 20 kt
SIGMETs :     Misc.  Thunderstorms  Icing  Turbulence  Mountain Waves  Volcanic Ashes







- Airport Elevation : 2425 ft


ETHA - Altenstadt Army

CURRENT METAR :
  • 241720Z 08012KT 4800 BR OVC004 06/05 Q1025 BLACKYLO

EXPIRED METARs :
  • 241620Z 08011KT 5000 BR OVC005 06/05 Q1024 BLACKYLO
  • 241520Z 09011KT 6000 OVC005 06/05 Q1024 BLACKYLO

TAF AMD TAF ETHA
Valid from the 24 at 09:00 until the 24 at 18:00 UTC


240943Z 2409/2418 07010KT 3000 BR OVC004
BECMG 2409/2411 07012KT 9999 NSW FEW007 SCT020 BKN240 CANCEL 1020
No reported NOTAMs for that airfield.



MET'MAP, your aeronautical weather chart ! - Copyright ORBIFLY December 2007 - Disclaimer

ORBIFLY MET'MAP TEAM :

Programming & Development : Alexandra Zaïnal
Concept & Development : Baudouin d'Aumeries
Co-Development & Prog : Marc-Olivier Méhu
Technical & hardware support : Manuel Goepfert

Contact : metmap@orbifly.com




SOURCES & CREDITS :

   NOAA